Time,TemperatureF,DewpointF,PressureIn,WindDirection,WindDirectionDegrees,WindSpeedMPH,WindSpeedGustMPH,Humidity,HourlyPrecipIn,Conditions,Clouds,dailyrainin,SolarRadiationWatts/m^2,SoftwareType,DateUTC
2013-09-10 00:00:00,66.5,59.4,29.80,SE,130,0.0,0.0,78,0.00,,,0.00,0,Wunderground v.1.15,2013-09-10 07:00:00,
2013-09-10 00:05:00,66.5,59.4,29.80,SE,130,0.0,0.0,78,0.00,,,0.00,0,Wunderground v.1.15,2013-09-10 07:05:00,
2013-09-10 00:11:00,66.3,58.9,29.80,SE,130,0.0,0.0,77,0.00,,,0.00,0,Wunderground v.1.15,2013-09-10 07:11:00,
2013-09-10 00:16:00,65.8,59.1,29.80,SW,217,0.0,0.0,79,0.00,,,0.00,0,Wunderground v.1.15,2013-09-10 07:16:00,
2013-09-10 00:21:00,65.2,58.5,29.80,SW,217,0.0,0.0,79,0.00,,,0.00,0,Wunderground v.1.15,2013-09-10 07:21:00,
2013-09-10 00:27:00,64.8,58.5,29.80,SW,217,0.0,0.0,80,0.00,,,0.00,0,Wunderground v.1.15,2013-09-10 07:27:00,
2013-09-10 00:32:00,64.7,58.4,29.80,SW,217,0.0,0.0,80,0.00,,,0.00,0,Wunderground v.1.15,2013-09-10 07:32:00,
2013-09-10 00:37:00,64.2,58.2,29.80,SW,217,0.0,0.0,81,0.00,,,0.00,0,Wunderground v.1.15,2013-09-10 07:37:00,
2013-09-10 00:42:00,63.8,57.9,29.80,SW,217,0.0,0.0,81,0.00,,,0.00,0,Wunderground v.1.15,2013-09-10 07:42:00,
2013-09-10 00:48:00,63.4,57.5,29.80,SW,215,0.0,0.0,81,0.00,,,0.00,0,Wunderground v.1.15,2013-09-10 07:48:00,
2013-09-10 00:54:00,63.1,57.5,29.80,SW,215,0.0,0.0,82,0.00,,,0.00,0,Wunderground v.1.15,2013-09-10 07:54:00,
2013-09-10 00:59:00,63.2,57.6,29.80,SW,215,0.0,0.0,82,0.00,,,0.00,0,Wunderground v.1.15,2013-09-10 07:59:00,
2013-09-10 01:04:00,62.6,56.3,29.80,SW,215,0.0,0.0,80,0.00,,,0.00,0,Wunderground v.1.15,2013-09-10 08:04:00,
2013-09-10 01:10:00,61.9,56.0,29.80,SE,134,0.0,0.0,81,0.00,,,0.00,0,Wunderground v.1.15,2013-09-10 08:10:00,
2013-09-10 01:15:00,61.5,55.6,29.80,ESE,120,0.0,0.0,81,0.00,,,0.00,0,Wunderground v.1.15,2013-09-10 08:15:00,
2013-09-10 01:21:00,60.9,55.4,29.81,SE,133,0.0,0.0,82,0.00,,,0.00,0,Wunderground v.1.15,2013-09-10 08:21:00,
2013-09-10 01:26:00,60.6,55.7,29.81,SE,129,0.0,0.0,84,0.00,,,0.00,0,Wunderground v.1.15,2013-09-10 08:26:00,
2013-09-10 01:31:00,60.8,55.9,29.81,SE,129,0.0,0.0,84,0.00,,,0.00,0,Wunderground v.1.15,2013-09-10 08:31:00,
2013-09-10 01:37:00,61.2,56.0,29.81,SE,129,0.0,0.0,83,0.00,,,0.00,0,Wunderground v.1.15,2013-09-10 08:37:00,
2013-09-10 01:42:00,60.9,55.7,29.82,ESE,122,0.0,0.0,83,0.00,,,0.00,0,Wunderground v.1.15,2013-09-10 08:42:00,
2013-09-10 01:47:00,60.9,55.7,29.82,SE,143,0.0,0.0,83,0.00,,,0.00,0,Wunderground v.1.15,2013-09-10 08:47:00,
2013-09-10 01:53:00,60.9,55.7,29.82,ESE,123,0.0,0.0,83,0.00,,,0.00,0,Wunderground v.1.15,2013-09-10 08:53:00,
2013-09-10 01:58:00,60.8,55.9,29.82,ESE,120,0.0,0.0,84,0.00,,,0.00,0,Wunderground v.1.15,2013-09-10 08:58:00,
2013-09-10 02:03:00,60.9,56.0,29.82,ESE,121,0.0,0.0,84,0.00,,,0.00,0,Wunderground v.1.15,2013-09-10 09:03:00,
2013-09-10 02:09:00,60.9,56.0,29.82,ESE,121,0.0,0.0,84,0.00,,,0.00,0,Wunderground v.1.15,2013-09-10 09:09:00,
2013-09-10 02:14:00,61.0,55.8,29.82,ESE,121,0.0,0.0,83,0.00,,,0.00,0,Wunderground v.1.15,2013-09-10 09:14:00,
2013-09-10 02:19:00,61.0,55.8,29.82,ESE,121,0.0,0.0,83,0.00,,,0.00,0,Wunderground v.1.15,2013-09-10 09:19:00,
2013-09-10 02:24:00,61.0,55.8,29.82,ESE,121,0.0,0.0,83,0.00,,,0.00,0,Wunderground v.1.15,2013-09-10 09:24:00,
2013-09-10 02:30:00,61.0,55.5,29.82,ESE,121,0.0,0.0,82,0.00,,,0.00,0,Wunderground v.1.15,2013-09-10 09:30:00,
2013-09-10 02:35:00,60.9,55.4,29.82,ESE,121,0.0,0.0,82,0.00,,,0.00,0,Wunderground v.1.15,2013-09-10 09:35:00,
2013-09-10 02:41:00,60.4,54.9,29.82,ESE,121,0.0,0.0,82,0.00,,,0.00,0,Wunderground v.1.15,2013-09-10 09:41:00,
2013-09-10 02:46:00,59.6,54.1,29.83,SE,134,0.0,0.0,82,0.00,,,0.00,0,Wunderground v.1.15,2013-09-10 09:46:00,
2013-09-10 02:51:00,58.7,53.9,29.83,ESE,122,0.0,1.0,84,0.00,,,0.00,0,Wunderground v.1.15,2013-09-10 09:51:00,
2013-09-10 02:57:00,58.9,54.7,29.83,ESE,121,0.0,1.0,86,0.00,,,0.00,0,Wunderground v.1.15,2013-09-10 09:57:00,
2013-09-10 03:02:00,59.2,54.7,29.83,ESE,121,0.0,0.0,85,0.00,,,0.00,0,Wunderground v.1.15,2013-09-10 10:02:00,
2013-09-10 03:08:00,59.2,54.7,29.83,ESE,122,0.0,1.0,85,0.00,,,0.00,0,Wunderground v.1.15,2013-09-10 10:08:00,
2013-09-10 03:13:00,59.3,55.1,29.83,SE,133,0.0,1.0,86,0.00,,,0.00,0,Wunderground v.1.15,2013-09-10 10:13:00,
2013-09-10 03:18:00,59.4,54.9,29.83,SE,138,0.0,1.0,85,0.00,,,0.00,0,Wunderground v.1.15,2013-09-10 10:18:00,
2013-09-10 03:23:00,59.1,54.3,29.83,SE,138,0.0,0.0,84,0.00,,,0.00,0,Wunderground v.1.15,2013-09-10 10:23:00,
2013-09-10 03:29:00,59.0,53.8,29.83,SE,138,0.0,0.0,83,0.00,,,0.00,0,Wunderground v.1.15,2013-09-10 10:29:00,
2013-09-10 03:35:00,58.5,53.7,29.83,SE,138,0.0,0.0,84,0.00,,,0.00,0,Wunderground v.1.15,2013-09-10 10:35:00,
2013-09-10 03:41:00,58.4,53.6,29.83,SE,138,0.0,0.0,84,0.00,,,0.00,0,Wunderground v.1.15,2013-09-10 10:41:00,
2013-09-10 03:46:00,58.4,53.9,29.83,SE,138,0.0,0.0,85,0.00,,,0.00,0,Wunderground v.1.15,2013-09-10 10:46:00,
2013-09-10 03:52:00,58.6,54.1,29.83,SE,138,0.0,0.0,85,0.00,,,0.00,0,Wunderground v.1.15,2013-09-10 10:52:00,
2013-09-10 03:57:00,58.3,53.8,29.84,SE,138,0.0,2.0,85,0.00,,,0.00,0,Wunderground v.1.15,2013-09-10 10:57:00,
2013-09-10 04:03:00,58.0,53.2,29.84,SE,138,0.0,0.0,84,0.00,,,0.00,0,Wunderground v.1.15,2013-09-10 11:03:00,
2013-09-10 04:08:00,57.5,52.7,29.84,SE,138,0.0,0.0,84,0.00,,,0.00,0,Wunderground v.1.15,2013-09-10 11:08:00,
2013-09-10 04:13:00,57.9,53.7,29.84,SE,138,0.0,0.0,86,0.00,,,0.00,0,Wunderground v.1.15,2013-09-10 11:13:00,
2013-09-10 04:19:00,58.4,54.2,29.84,SE,138,0.0,0.0,86,0.00,,,0.00,0,Wunderground v.1.15,2013-09-10 11:19:00,
2013-09-10 04:24:00,58.4,53.9,29.84,SE,138,0.0,0.0,85,0.00,,,0.00,0,Wunderground v.1.15,2013-09-10 11:24:00,
2013-09-10 04:29:00,58.9,54.7,29.84,SE,138,0.0,0.0,86,0.00,,,0.00,0,Wunderground v.1.15,2013-09-10 11:29:00,
2013-09-10 04:35:00,59.6,55.4,29.84,South,175,1.0,1.0,86,0.00,,,0.00,0,Wunderground v.1.15,2013-09-10 11:35:00,
2013-09-10 04:40:00,59.7,55.5,29.84,South,175,1.0,1.0,86,0.00,,,0.00,0,Wunderground v.1.15,2013-09-10 11:40:00,
2013-09-10 04:45:00,60.1,55.6,29.84,South,175,0.0,1.0,85,0.00,,,0.00,0,Wunderground v.1.15,2013-09-10 11:45:00,
2013-09-10 04:50:00,61.0,57.1,29.84,South,175,0.0,3.0,87,0.00,,,0.00,0,Wunderground v.1.15,2013-09-10 11:50:00,
2013-09-10 04:56:00,61.7,58.1,29.84,SE,130,1.0,3.0,88,0.00,,,0.00,0,Wunderground v.1.15,2013-09-10 11:56:00,
2013-09-10 05:01:00,62.1,58.5,29.84,SE,136,0.0,1.0,88,0.00,,,0.00,0,Wunderground v.1.15,2013-09-10 12:01:00,
2013-09-10 05:07:00,62.3,58.7,29.84,WSW,239,1.0,3.0,88,0.00,,,0.00,0,Wunderground v.1.15,2013-09-10 12:07:00,
2013-09-10 05:12:00,62.4,58.5,29.84,SW,236,1.0,4.0,87,0.00,,,0.00,0,Wunderground v.1.15,2013-09-10 12:12:00,
2013-09-10 05:17:00,62.3,58.7,29.84,WSW,242,1.0,5.0,88,0.00,,,0.00,0,Wunderground v.1.15,2013-09-10 12:17:00,
2013-09-10 05:23:00,62.2,58.6,29.84,SSW,200,2.0,2.0,88,0.00,,,0.00,0,Wunderground v.1.15,2013-09-10 12:23:00,
2013-09-10 05:28:00,62.3,58.7,29.84,West,260,1.0,2.0,88,0.00,,,0.00,0,Wunderground v.1.15,2013-09-10 12:28:00,
2013-09-10 05:34:00,62.2,58.6,29.84,WSW,252,1.0,2.0,88,0.00,,,0.00,0,Wunderground v.1.15,2013-09-10 12:34:00,
2013-09-10 05:39:00,62.2,58.6,29.84,SW,234,1.0,1.0,88,0.00,,,0.00,0,Wunderground v.1.15,2013-09-10 12:39:00,
2013-09-10 05:44:00,62.3,58.7,29.85,SW,229,2.0,5.0,88,0.00,,,0.00,0,Wunderground v.1.15,2013-09-10 12:44:00,
2013-09-10 05:49:00,62.3,58.7,29.85,West,269,2.0,2.0,88,0.00,,,0.00,0,Wunderground v.1.15,2013-09-10 12:49:00,
2013-09-10 05:55:00,62.4,58.8,29.85,SE,144,1.0,2.0,88,0.00,,,0.00,0,Wunderground v.1.15,2013-09-10 12:55:00,
2013-09-10 06:00:00,62.4,58.8,29.85,SE,138,1.0,1.0,88,0.00,,,0.00,0,Wunderground v.1.15,2013-09-10 13:00:00,
2013-09-10 06:05:00,62.4,58.5,29.85,SE,128,1.0,2.0,87,0.00,,,0.00,0,Wunderground v.1.15,2013-09-10 13:05:00,
2013-09-10 06:11:00,62.4,58.5,29.86,SE,126,1.0,1.0,87,0.00,,,0.00,0,Wunderground v.1.15,2013-09-10 13:11:00,
2013-09-10 06:16:00,62.5,58.6,29.86,SE,142,1.0,1.0,87,0.00,,,0.00,0,Wunderground v.1.15,2013-09-10 13:16:00,
2013-09-10 06:21:00,62.6,58.7,29.86,South,189,0.0,1.0,87,0.00,,,0.00,0,Wunderground v.1.15,2013-09-10 13:21:00,
2013-09-10 06:27:00,62.7,58.8,29.86,SW,223,0.0,1.0,87,0.00,,,0.00,0,Wunderground v.1.15,2013-09-10 13:27:00,
2013-09-10 06:32:00,62.8,58.9,29.86,ESE,123,0.0,0.0,87,0.00,,,0.00,0,Wunderground v.1.15,2013-09-10 13:32:00,
2013-09-10 06:37:00,62.9,58.6,29.86,East,94,0.0,1.0,86,0.00,,,0.00,0,Wunderground v.1.15,2013-09-10 13:37:00,
2013-09-10 06:42:00,62.9,58.6,29.86,ESE,115,0.0,1.0,86,0.00,,,0.00,0,Wunderground v.1.15,2013-09-10 13:42:00,
2013-09-10 06:48:00,62.7,58.5,29.86,ESE,109,0.0,1.0,86,0.00,,,0.00,5,Wunderground v.1.15,2013-09-10 13:48:00,
2013-09-10 06:53:00,62.7,58.8,29.87,ESE,120,0.0,1.0,87,0.00,,,0.00,11,Wunderground v.1.15,2013-09-10 13:53:00,
2013-09-10 06:59:00,62.9,59.0,29.87,ESE,119,0.0,0.0,87,0.00,,,0.00,19,Wunderground v.1.15,2013-09-10 13:59:00,
2013-09-10 07:05:00,62.8,58.5,29.87,ESE,115,0.0,0.0,86,0.00,,,0.00,26,Wunderground v.1.15,2013-09-10 14:05:00,
2013-09-10 07:10:00,62.9,58.6,29.87,ESE,115,0.0,0.0,86,0.00,,,0.00,35,Wunderground v.1.15,2013-09-10 14:10:00,
2013-09-10 07:16:00,63.0,58.7,29.87,ESE,118,0.0,2.0,86,0.00,,,0.00,53,Wunderground v.1.15,2013-09-10 14:16:00,
2013-09-10 07:21:00,63.1,58.5,29.87,ESE,118,0.0,0.0,85,0.00,,,0.00,60,Wunderground v.1.15,2013-09-10 14:21:00,
2013-09-10 07:26:00,63.1,58.5,29.87,NE,51,0.0,0.0,85,0.00,,,0.00,74,Wunderground v.1.15,2013-09-10 14:26:00,
2013-09-10 07:31:00,63.4,58.8,29.87,East,84,0.0,0.0,85,0.00,,,0.00,77,Wunderground v.1.15,2013-09-10 14:31:00,
2013-09-10 07:37:00,63.6,58.7,29.87,ENE,65,0.0,1.0,84,0.00,,,0.00,84,Wunderground v.1.15,2013-09-10 14:37:00,
2013-09-10 07:42:00,63.7,59.1,29.87,ENE,70,0.0,0.0,85,0.00,,,0.00,97,Wunderground v.1.15,2013-09-10 14:42:00,
2013-09-10 07:47:00,64.0,59.1,29.88,ENE,78,0.0,0.0,84,0.00,,,0.00,114,Wunderground v.1.15,2013-09-10 14:47:00,
2013-09-10 07:53:00,64.4,59.1,29.88,ENE,78,0.0,0.0,83,0.00,,,0.00,121,Wunderground v.1.15,2013-09-10 14:53:00,
2013-09-10 07:59:00,64.2,58.9,29.88,WNW,284,0.0,0.0,83,0.00,,,0.00,86,Wunderground v.1.15,2013-09-10 14:59:00,
2013-09-10 08:05:00,64.0,58.7,29.88,NW,323,0.0,1.0,83,0.00,,,0.00,109,Wunderground v.1.15,2013-09-10 15:05:00,
2013-09-10 08:10:00,64.4,59.5,29.88,NW,323,0.0,0.0,84,0.00,,,0.00,137,Wunderground v.1.15,2013-09-10 15:10:00,
2013-09-10 08:16:00,64.8,59.2,29.88,NNE,26,0.0,2.0,82,0.00,,,0.00,181,Wunderground v.1.15,2013-09-10 15:16:00,
2013-09-10 08:21:00,64.5,58.9,29.89,North,360,0.0,1.0,82,0.00,,,0.00,200,Wunderground v.1.15,2013-09-10 15:21:00,
2013-09-10 08:26:00,64.8,59.2,29.89,NNW,342,0.0,2.0,82,0.00,,,0.00,264,Wunderground v.1.15,2013-09-10 15:26:00,
2013-09-10 08:31:00,64.8,59.2,29.89,North,351,1.0,1.0,82,0.00,,,0.00,262,Wunderground v.1.15,2013-09-10 15:31:00,
2013-09-10 08:37:00,65.1,59.5,29.89,NE,49,1.0,2.0,82,0.00,,,0.00,156,Wunderground v.1.15,2013-09-10 15:37:00,
2013-09-10 08:42:00,65.1,59.5,29.89,NNW,343,1.0,2.0,82,0.00,,,0.00,141,Wunderground v.1.15,2013-09-10 15:42:00,
2013-09-10 08:47:00,65.7,59.7,29.89,SW,222,1.0,3.0,81,0.00,,,0.00,236,Wunderground v.1.15,2013-09-10 15:47:00,
2013-09-10 08:53:00,66.1,59.7,29.89,ESE,117,1.0,2.0,80,0.00,,,0.00,183,Wunderground v.1.15,2013-09-10 15:53:00,
2013-09-10 08:58:00,66.2,59.5,29.89,SE,143,2.0,4.0,79,0.00,,,0.00,299,Wunderground v.1.15,2013-09-10 15:58:00,
2013-09-10 09:03:00,66.4,59.7,29.89,SW,234,2.0,3.0,79,0.00,,,0.00,364,Wunderground v.1.15,2013-09-10 16:03:00,
2013-09-10 09:09:00,66.7,60.0,29.89,WNW,290,1.0,1.0,79,0.00,,,0.00,213,Wunderground v.1.15,2013-09-10 16:09:00,
2013-09-10 09:14:00,66.8,59.7,29.89,NW,309,1.0,3.0,78,0.00,,,0.00,221,Wunderground v.1.15,2013-09-10 16:14:00,
2013-09-10 09:19:00,66.6,59.9,29.89,WSW,253,1.0,4.0,79,0.00,,,0.00,367,Wunderground v.1.15,2013-09-10 16:19:00,
2013-09-10 09:25:00,66.8,60.1,29.89,West,261,2.0,5.0,79,0.00,,,0.00,394,Wunderground v.1.15,2013-09-10 16:25:00,
2013-09-10 09:30:00,67.9,60.4,29.90,West,265,3.0,4.0,77,0.00,,,0.00,570,Wunderground v.1.15,2013-09-10 16:30:00,
2013-09-10 09:35:00,68.4,60.5,29.90,WNW,289,3.0,6.0,76,0.00,,,0.00,211,Wunderground v.1.15,2013-09-10 16:35:00,
2013-09-10 09:41:00,68.0,60.2,29.90,SSE,164,2.0,3.0,76,0.00,,,0.00,355,Wunderground v.1.15,2013-09-10 16:41:00,
2013-09-10 09:46:00,67.8,59.6,29.90,South,191,2.0,4.0,75,0.00,,,0.00,209,Wunderground v.1.15,2013-09-10 16:46:00,
2013-09-10 09:51:00,68.8,60.2,29.89,SSW,207,2.0,3.0,74,0.00,,,0.00,241,Wunderground v.1.15,2013-09-10 16:51:00,
2013-09-10 09:57:00,68.9,60.3,29.89,SW,232,1.0,7.0,74,0.00,,,0.00,601,Wunderground v.1.15,2013-09-10 16:57:00,
2013-09-10 10:02:00,69.3,60.3,29.89,WSW,255,1.0,4.0,73,0.00,,,0.00,269,Wunderground v.1.15,2013-09-10 17:02:00,
2013-09-10 10:08:00,69.4,60.8,29.89,SW,217,2.0,4.0,74,0.00,,,0.00,656,Wunderground v.1.15,2013-09-10 17:08:00,
2013-09-10 10:13:00,70.5,60.2,29.89,SW,226,3.0,5.0,70,0.00,,,0.00,373,Wunderground v.1.15,2013-09-10 17:13:00,
2013-09-10 10:18:00,69.7,59.9,29.89,SW,221,3.0,3.0,71,0.00,,,0.00,297,Wunderground v.1.15,2013-09-10 17:18:00,
2013-09-10 10:24:00,70.2,60.4,29.89,SW,226,2.0,5.0,71,0.00,,,0.00,675,Wunderground v.1.15,2013-09-10 17:24:00,
2013-09-10 10:29:00,70.4,60.5,29.89,SSW,203,2.0,6.0,71,0.00,,,0.00,684,Wunderground v.1.15,2013-09-10 17:29:00,
2013-09-10 10:34:00,70.9,60.2,29.89,SSE,148,2.0,6.0,69,0.00,,,0.00,682,Wunderground v.1.15,2013-09-10 17:34:00,
2013-09-10 10:41:00,71.5,60.4,29.89,WSW,257,2.0,3.0,68,0.00,,,0.00,652,Wunderground v.1.15,2013-09-10 17:41:00,
2013-09-10 10:47:00,72.5,60.5,29.89,South,175,2.0,6.0,66,0.00,,,0.00,671,Wunderground v.1.15,2013-09-10 17:47:00,
2013-09-10 10:52:00,73.3,60.8,29.89,SW,232,3.0,6.0,65,0.00,,,0.00,675,Wunderground v.1.15,2013-09-10 17:52:00,
2013-09-10 10:57:00,73.2,60.3,29.88,South,184,3.0,6.0,64,0.00,,,0.00,686,Wunderground v.1.15,2013-09-10 17:57:00,
2013-09-10 11:03:00,73.5,60.1,29.89,SW,223,2.0,4.0,63,0.00,,,0.00,689,Wunderground v.1.15,2013-09-10 18:03:00,
2013-09-10 11:08:00,73.7,60.3,29.89,SE,134,2.0,4.0,63,0.00,,,0.00,700,Wunderground v.1.15,2013-09-10 18:08:00,
2013-09-10 11:13:00,74.0,60.6,29.88,South,184,2.0,5.0,63,0.00,,,0.00,705,Wunderground v.1.15,2013-09-10 18:13:00,
2013-09-10 11:19:00,74.7,59.9,29.89,SE,146,3.0,4.0,60,0.00,,,0.00,714,Wunderground v.1.15,2013-09-10 18:19:00,
2013-09-10 11:24:00,74.8,60.0,29.88,WSW,249,3.0,6.0,60,0.00,,,0.00,722,Wunderground v.1.15,2013-09-10 18:24:00,
2013-09-10 11:29:00,74.5,58.8,29.88,SSE,149,3.0,3.0,58,0.00,,,0.00,728,Wunderground v.1.15,2013-09-10 18:29:00,
2013-09-10 11:35:00,75.5,59.7,29.88,SW,232,4.0,6.0,58,0.00,,,0.00,731,Wunderground v.1.15,2013-09-10 18:35:00,
2013-09-10 11:40:00,76.0,59.2,29.88,NW,321,3.0,3.0,56,0.00,,,0.00,737,Wunderground v.1.15,2013-09-10 18:40:00,
2013-09-10 11:45:00,75.9,59.6,29.88,West,280,3.0,5.0,57,0.00,,,0.00,744,Wunderground v.1.15,2013-09-10 18:45:00,
2013-09-10 11:51:00,76.6,60.2,29.88,South,184,4.0,6.0,57,0.00,,,0.00,745,Wunderground v.1.15,2013-09-10 18:51:00,
2013-09-10 11:56:00,76.2,60.3,29.88,SSW,194,3.0,8.0,58,0.00,,,0.00,752,Wunderground v.1.15,2013-09-10 18:56:00,
2013-09-10 12:01:00,77.1,60.2,29.88,WSW,244,3.0,7.0,56,0.00,,,0.00,754,Wunderground v.1.15,2013-09-10 19:01:00,
2013-09-10 12:07:00,77.1,59.7,29.88,WSW,250,4.0,9.0,55,0.00,,,0.00,758,Wunderground v.1.15,2013-09-10 19:07:00,
2013-09-10 12:12:00,76.9,60.0,29.88,SW,217,3.0,4.0,56,0.00,,,0.00,759,Wunderground v.1.15,2013-09-10 19:12:00,
2013-09-10 12:18:00,77.5,60.1,29.88,South,173,3.0,5.0,55,0.00,,,0.00,765,Wunderground v.1.15,2013-09-10 19:18:00,
2013-09-10 12:24:00,77.0,59.6,29.87,WSW,258,2.0,4.0,55,0.00,,,0.00,770,Wunderground v.1.15,2013-09-10 19:24:00,
2013-09-10 12:29:00,78.2,59.7,29.87,SW,234,3.0,5.0,53,0.00,,,0.00,772,Wunderground v.1.15,2013-09-10 19:29:00,
2013-09-10 12:35:00,78.2,59.7,29.87,SSW,205,4.0,7.0,53,0.00,,,0.00,773,Wunderground v.1.15,2013-09-10 19:35:00,
2013-09-10 12:40:00,78.7,59.0,29.87,West,263,4.0,5.0,51,0.00,,,0.00,773,Wunderground v.1.15,2013-09-10 19:40:00,
2013-09-10 12:45:00,77.9,58.3,29.87,SW,220,4.0,9.0,51,0.00,,,0.00,775,Wunderground v.1.15,2013-09-10 19:45:00,
2013-09-10 12:51:00,78.7,59.0,29.87,SW,223,5.0,5.0,51,0.00,,,0.00,773,Wunderground v.1.15,2013-09-10 19:51:00,
2013-09-10 12:56:00,78.7,57.9,29.87,WSW,258,4.0,6.0,49,0.00,,,0.00,773,Wunderground v.1.15,2013-09-10 19:56:00,
2013-09-10 13:02:00,79.4,59.1,29.86,SW,222,4.0,8.0,50,0.00,,,0.00,775,Wunderground v.1.15,2013-09-10 20:02:00,
2013-09-10 13:07:00,79.8,59.5,29.86,SSW,210,4.0,8.0,50,0.00,,,0.00,772,Wunderground v.1.15,2013-09-10 20:07:00,
2013-09-10 13:12:00,79.9,59.6,29.86,SSW,213,3.0,10.0,50,0.00,,,0.00,768,Wunderground v.1.15,2013-09-10 20:12:00,
2013-09-10 13:18:00,79.9,59.6,29.86,WSW,246,4.0,10.0,50,0.00,,,0.00,768,Wunderground v.1.15,2013-09-10 20:18:00,
2013-09-10 13:23:00,79.9,59.6,29.86,WSW,240,3.0,5.0,50,0.00,,,0.00,761,Wunderground v.1.15,2013-09-10 20:23:00,
2013-09-10 13:29:00,80.7,59.8,29.86,SSE,161,4.0,4.0,49,0.00,,,0.00,761,Wunderground v.1.15,2013-09-10 20:29:00,
2013-09-10 13:35:00,80.9,59.4,29.86,WSW,254,4.0,6.0,48,0.00,,,0.00,752,Wunderground v.1.15,2013-09-10 20:35:00,
2013-09-10 13:40:00,80.3,58.8,29.85,SW,227,4.0,4.0,48,0.00,,,0.00,749,Wunderground v.1.15,2013-09-10 20:40:00,
2013-09-10 13:45:00,80.3,59.4,29.85,West,271,4.0,6.0,49,0.00,,,0.00,744,Wunderground v.1.15,2013-09-10 20:45:00,
2013-09-10 13:50:00,80.7,59.2,29.85,SW,232,4.0,5.0,48,0.00,,,0.00,740,Wunderground v.1.15,2013-09-10 20:50:00,
2013-09-10 13:56:00,81.7,59.5,29.85,South,177,3.0,7.0,47,0.00,,,0.00,738,Wunderground v.1.15,2013-09-10 20:56:00,
2013-09-10 14:01:00,81.0,58.9,29.85,SW,234,3.0,4.0,47,0.00,,,0.00,731,Wunderground v.1.15,2013-09-10 21:01:00,
2013-09-10 14:07:00,80.8,59.3,29.85,SW,224,4.0,7.0,48,0.00,,,0.00,722,Wunderground v.1.15,2013-09-10 21:07:00,
2013-09-10 14:12:00,80.7,59.2,29.85,SSW,205,4.0,5.0,48,0.00,,,0.00,714,Wunderground v.1.15,2013-09-10 21:12:00,
2013-09-10 14:17:00,80.7,58.6,29.85,West,265,5.0,5.0,47,0.00,,,0.00,708,Wunderground v.1.15,2013-09-10 21:17:00,
2013-09-10 14:22:00,80.8,59.3,29.85,SW,229,5.0,7.0,48,0.00,,,0.00,696,Wunderground v.1.15,2013-09-10 21:22:00,
2013-09-10 14:28:00,81.1,58.4,29.85,WNW,303,4.0,7.0,46,0.00,,,0.00,689,Wunderground v.1.15,2013-09-10 21:28:00,
2013-09-10 14:33:00,81.1,59.0,29.85,WSW,252,5.0,12.0,47,0.00,,,0.00,680,Wunderground v.1.15,2013-09-10 21:33:00,
2013-09-10 14:39:00,80.9,58.2,29.84,SSE,153,5.0,5.0,46,0.00,,,0.00,670,Wunderground v.1.15,2013-09-10 21:39:00,
2013-09-10 14:44:00,81.2,58.5,29.84,SSW,210,5.0,7.0,46,0.00,,,0.00,659,Wunderground v.1.15,2013-09-10 21:44:00,
2013-09-10 14:49:00,81.0,58.3,29.84,WNW,287,4.0,4.0,46,0.00,,,0.00,649,Wunderground v.1.15,2013-09-10 21:49:00,
2013-09-10 14:55:00,81.4,58.6,29.84,WSW,252,4.0,6.0,46,0.00,,,0.00,638,Wunderground v.1.15,2013-09-10 21:55:00,
2013-09-10 15:00:00,81.4,58.6,29.84,SW,222,4.0,7.0,46,0.00,,,0.00,631,Wunderground v.1.15,2013-09-10 22:00:00,
2013-09-10 15:06:00,81.1,59.0,29.84,SW,217,5.0,7.0,47,0.00,,,0.00,615,Wunderground v.1.15,2013-09-10 22:06:00,
2013-09-10 15:11:00,80.6,58.5,29.84,SW,231,6.0,8.0,47,0.00,,,0.00,605,Wunderground v.1.15,2013-09-10 22:11:00,
2013-09-10 15:16:00,80.5,59.0,29.84,SW,223,6.0,8.0,48,0.00,,,0.00,592,Wunderground v.1.15,2013-09-10 22:16:00,
2013-09-10 15:22:00,80.5,59.0,29.84,SSW,211,5.0,7.0,48,0.00,,,0.00,578,Wunderground v.1.15,2013-09-10 22:22:00,
2013-09-10 15:27:00,80.0,58.5,29.84,West,263,5.0,7.0,48,0.00,,,0.00,566,Wunderground v.1.15,2013-09-10 22:27:00,
2013-09-10 15:32:00,80.4,58.9,29.84,SW,234,5.0,7.0,48,0.00,,,0.00,554,Wunderground v.1.15,2013-09-10 22:32:00,
2013-09-10 15:37:00,80.2,58.7,29.84,SW,233,5.0,9.0,48,0.00,,,0.00,540,Wunderground v.1.15,2013-09-10 22:37:00,
2013-09-10 15:43:00,80.2,58.7,29.84,SSW,209,5.0,7.0,48,0.00,,,0.00,527,Wunderground v.1.15,2013-09-10 22:43:00,
2013-09-10 15:48:00,80.2,59.3,29.84,West,276,4.0,7.0,49,0.00,,,0.00,513,Wunderground v.1.15,2013-09-10 22:48:00,
2013-09-10 15:54:00,79.9,59.0,29.84,SW,224,3.0,5.0,49,0.00,,,0.00,497,Wunderground v.1.15,2013-09-10 22:54:00,
2013-09-10 15:59:00,80.2,58.7,29.84,SSW,202,5.0,5.0,48,0.00,,,0.00,482,Wunderground v.1.15,2013-09-10 22:59:00,
2013-09-10 16:05:00,79.9,59.0,29.84,SSW,199,5.0,7.0,49,0.00,,,0.00,466,Wunderground v.1.15,2013-09-10 23:05:00,
2013-09-10 16:11:00,79.6,58.8,29.84,West,263,4.0,6.0,49,0.00,,,0.00,452,Wunderground v.1.15,2013-09-10 23:11:00,
2013-09-10 16:16:00,78.9,58.7,29.84,SSE,165,5.0,11.0,50,0.00,,,0.00,434,Wunderground v.1.15,2013-09-10 23:16:00,
2013-09-10 16:21:00,78.5,58.9,29.84,SW,227,5.0,9.0,51,0.00,,,0.00,418,Wunderground v.1.15,2013-09-10 23:21:00,
2013-09-10 16:26:00,78.1,59.0,29.84,WSW,244,4.0,9.0,52,0.00,,,0.00,401,Wunderground v.1.15,2013-09-10 23:26:00,
2013-09-10 16:32:00,78.3,59.2,29.84,WSW,247,4.0,7.0,52,0.00,,,0.00,385,Wunderground v.1.15,2013-09-10 23:32:00,
2013-09-10 16:37:00,78.4,58.8,29.84,WSW,238,4.0,7.0,51,0.00,,,0.00,369,Wunderground v.1.15,2013-09-10 23:37:00,
2013-09-10 16:42:00,78.1,59.0,29.84,East,94,5.0,9.0,52,0.00,,,0.00,352,Wunderground v.1.15,2013-09-10 23:42:00,
2013-09-10 16:48:00,78.1,59.0,29.84,WSW,249,4.0,9.0,52,0.00,,,0.00,332,Wunderground v.1.15,2013-09-10 23:48:00,
2013-09-10 16:53:00,77.4,58.9,29.84,SW,221,4.0,8.0,53,0.00,,,0.00,318,Wunderground v.1.15,2013-09-10 23:53:00,
2013-09-10 16:59:00,77.3,59.4,29.84,SW,230,5.0,6.0,54,0.00,,,0.00,301,Wunderground v.1.15,2013-09-10 23:59:00,
2013-09-10 17:05:00,77.2,59.3,29.84,SW,216,5.0,9.0,54,0.00,,,0.00,281,Wunderground v.1.15,2013-09-11 00:05:00,
2013-09-10 17:10:00,76.9,59.5,29.84,WSW,248,6.0,7.0,55,0.00,,,0.00,265,Wunderground v.1.15,2013-09-11 00:10:00,
2013-09-10 17:16:00,76.3,59.4,29.84,SW,224,5.0,8.0,56,0.00,,,0.00,248,Wunderground v.1.15,2013-09-11 00:16:00,
2013-09-10 17:21:00,76.2,59.4,29.84,SW,232,4.0,6.0,56,0.00,,,0.00,230,Wunderground v.1.15,2013-09-11 00:21:00,
2013-09-10 17:27:00,75.9,59.6,29.84,SW,229,5.0,7.0,57,0.00,,,0.00,211,Wunderground v.1.15,2013-09-11 00:27:00,
2013-09-10 17:32:00,75.9,59.6,29.84,SW,229,5.0,6.0,57,0.00,,,0.00,193,Wunderground v.1.15,2013-09-11 00:32:00,
2013-09-10 17:37:00,75.4,59.1,29.85,West,273,4.0,10.0,57,0.00,,,0.00,181,Wunderground v.1.15,2013-09-11 00:37:00,
2013-09-10 17:43:00,75.0,59.2,29.85,SSE,166,4.0,5.0,58,0.00,,,0.00,160,Wunderground v.1.15,2013-09-11 00:43:00,
2013-09-10 17:48:00,74.6,58.8,29.85,West,263,2.0,6.0,58,0.00,,,0.00,144,Wunderground v.1.15,2013-09-11 00:48:00,
2013-09-10 17:53:00,74.4,59.1,29.85,South,191,4.0,7.0,59,0.00,,,0.00,125,Wunderground v.1.15,2013-09-11 00:53:00,
2013-09-10 17:59:00,73.8,59.0,29.85,South,186,5.0,5.0,60,0.00,,,0.00,107,Wunderground v.1.15,2013-09-11 00:59:00,
2013-09-10 18:05:00,73.3,59.0,29.86,SW,222,5.0,7.0,61,0.00,,,0.00,88,Wunderground v.1.15,2013-09-11 01:05:00,
2013-09-10 18:11:00,72.9,58.7,29.86,WSW,244,5.0,7.0,61,0.00,,,0.00,70,Wunderground v.1.15,2013-09-11 01:11:00,
2013-09-10 18:16:00,72.5,58.7,29.86,WSW,257,3.0,7.0,62,0.00,,,0.00,51,Wunderground v.1.15,2013-09-11 01:16:00,
2013-09-10 18:21:00,72.1,58.8,29.86,South,171,2.0,5.0,63,0.00,,,0.00,39,Wunderground v.1.15,2013-09-11 01:21:00,
2013-09-10 18:26:00,71.7,58.9,29.87,NW,306,4.0,9.0,64,0.00,,,0.00,33,Wunderground v.1.15,2013-09-11 01:26:00,
2013-09-10 18:32:00,71.5,58.7,29.87,SW,235,4.0,4.0,64,0.00,,,0.00,28,Wunderground v.1.15,2013-09-11 01:32:00,
2013-09-10 18:37:00,71.4,59.0,29.87,West,271,3.0,5.0,65,0.00,,,0.00,23,Wunderground v.1.15,2013-09-11 01:37:00,
2013-09-10 18:43:00,70.9,59.0,29.87,West,275,2.0,3.0,66,0.00,,,0.00,19,Wunderground v.1.15,2013-09-11 01:43:00,
2013-09-10 18:48:00,70.6,58.7,29.87,West,261,2.0,5.0,66,0.00,,,0.00,14,Wunderground v.1.15,2013-09-11 01:48:00,
2013-09-10 18:53:00,70.2,58.7,29.88,West,270,2.0,4.0,67,0.00,,,0.00,11,Wunderground v.1.15,2013-09-11 01:53:00,
2013-09-10 18:59:00,69.8,58.8,29.88,SSW,205,2.0,3.0,68,0.00,,,0.00,5,Wunderground v.1.15,2013-09-11 01:59:00,
2013-09-10 19:04:00,69.4,58.8,29.88,NW,306,2.0,4.0,69,0.00,,,0.00,0,Wunderground v.1.15,2013-09-11 02:04:00,
2013-09-10 19:10:00,69.0,58.4,29.88,NW,321,2.0,2.0,69,0.00,,,0.00,0,Wunderground v.1.15,2013-09-11 02:10:00,
2013-09-10 19:15:00,69.0,58.8,29.88,NNW,336,1.0,2.0,70,0.00,,,0.00,0,Wunderground v.1.15,2013-09-11 02:15:00,
2013-09-10 19:20:00,68.8,58.6,29.88,SW,217,2.0,4.0,70,0.00,,,0.00,0,Wunderground v.1.15,2013-09-11 02:20:00,
2013-09-10 19:26:00,68.6,58.8,29.89,West,260,2.0,4.0,71,0.00,,,0.00,0,Wunderground v.1.15,2013-09-11 02:26:00,
2013-09-10 19:31:00,68.4,58.6,29.89,WSW,240,2.0,2.0,71,0.00,,,0.00,0,Wunderground v.1.15,2013-09-11 02:31:00,
2013-09-10 19:37:00,68.2,58.8,29.89,SW,219,1.0,4.0,72,0.00,,,0.00,0,Wunderground v.1.15,2013-09-11 02:37:00,
2013-09-10 19:43:00,67.8,58.4,29.89,SSW,200,1.0,3.0,72,0.00,,,0.00,0,Wunderground v.1.15,2013-09-11 02:43:00,
2013-09-10 19:48:00,67.6,58.6,29.89,West,261,1.0,3.0,73,0.00,,,0.00,0,Wunderground v.1.15,2013-09-11 02:48:00,
2013-09-10 19:53:00,67.5,58.5,29.90,SE,135,0.0,1.0,73,0.00,,,0.00,0,Wunderground v.1.15,2013-09-11 02:53:00,
2013-09-10 19:59:00,67.4,58.4,29.90,SW,223,1.0,1.0,73,0.00,,,0.00,0,Wunderground v.1.15,2013-09-11 02:59:00,
2013-09-10 20:05:00,67.4,58.4,29.90,SW,225,1.0,1.0,73,0.00,,,0.00,0,Wunderground v.1.15,2013-09-11 03:05:00,
2013-09-10 20:10:00,67.1,58.5,29.90,SSW,211,1.0,1.0,74,0.00,,,0.00,0,Wunderground v.1.15,2013-09-11 03:10:00,
2013-09-10 20:15:00,67.1,58.5,29.91,SSW,211,0.0,1.0,74,0.00,,,0.00,0,Wunderground v.1.15,2013-09-11 03:15:00,
2013-09-10 20:21:00,67.1,58.5,29.91,SSW,197,0.0,0.0,74,0.00,,,0.00,0,Wunderground v.1.15,2013-09-11 03:21:00,
2013-09-10 20:26:00,66.9,58.3,29.91,WSW,251,0.0,2.0,74,0.00,,,0.00,0,Wunderground v.1.15,2013-09-11 03:26:00,
2013-09-10 20:31:00,66.6,58.1,29.91,West,263,1.0,4.0,74,0.00,,,0.00,0,Wunderground v.1.15,2013-09-11 03:31:00,
2013-09-10 20:37:00,66.8,58.6,29.91,South,188,1.0,4.0,75,0.00,,,0.00,0,Wunderground v.1.15,2013-09-11 03:37:00,
2013-09-10 20:42:00,66.6,58.4,29.91,WSW,255,0.0,1.0,75,0.00,,,0.00,0,Wunderground v.1.15,2013-09-11 03:42:00,
2013-09-10 20:47:00,66.5,58.3,29.91,WSW,255,0.0,1.0,75,0.00,,,0.00,0,Wunderground v.1.15,2013-09-11 03:47:00,
2013-09-10 20:52:00,66.3,58.1,29.92,SW,217,0.0,2.0,75,0.00,,,0.00,0,Wunderground v.1.15,2013-09-11 03:52:00,
2013-09-10 20:58:00,66.1,57.9,29.92,WSW,238,0.0,3.0,75,0.00,,,0.00,0,Wunderground v.1.15,2013-09-11 03:58:00,
2013-09-10 21:01:00,66.1,57.9,29.92,SW,217,0.0,0.0,75,0.00,,,0.00,0,Wunderground v.1.15,2013-09-11 04:01:00,
2013-09-10 21:02:00,66.1,57.9,29.92,SW,217,0.0,0.0,75,0.00,,,0.00,0,Wunderground v.1.15,2013-09-11 04:02:00,
2013-09-10 21:03:00,66.1,57.9,29.92,SW,217,0.0,0.0,75,0.00,,,0.00,0,Wunderground v.1.15,2013-09-11 04:03:00,
2013-09-10 21:04:00,66.0,57.8,29.92,SE,146,0.0,0.0,75,0.00,,,0.00,0,Wunderground v.1.15,2013-09-11 04:04:00,
2013-09-10 21:09:00,65.8,58.0,29.92,ESE,116,1.0,1.0,76,0.00,,,0.00,0,Wunderground v.1.15,2013-09-11 04:09:00,
2013-09-10 21:15:00,65.6,57.8,29.92,SSE,165,1.0,2.0,76,0.00,,,0.00,0,Wunderground v.1.15,2013-09-11 04:15:00,
2013-09-10 21:17:00,65.6,58.2,29.92,SSE,162,1.0,2.0,77,0.00,,,0.00,0,Wunderground v.1.15,2013-09-11 04:17:00,
2013-09-10 21:20:00,65.4,57.6,29.92,SSE,162,1.0,2.0,76,0.00,,,0.00,0,Wunderground v.1.15,2013-09-11 04:20:00,
2013-09-10 21:26:00,65.2,57.8,29.92,South,184,1.0,4.0,77,0.00,,,0.00,0,Wunderground v.1.15,2013-09-11 04:26:00,
2013-09-10 21:31:00,65.1,57.7,29.92,SE,136,1.0,3.0,77,0.00,,,0.00,0,Wunderground v.1.15,2013-09-11 04:31:00,
2013-09-10 21:37:00,65.2,57.8,29.92,SSE,159,1.0,3.0,77,0.00,,,0.00,0,Wunderground v.1.15,2013-09-11 04:37:00,
2013-09-10 21:42:00,65.0,58.0,29.92,SE,127,0.0,1.0,78,0.00,,,0.00,0,Wunderground v.1.15,2013-09-11 04:42:00,
2013-09-10 21:48:00,65.2,57.8,29.92,SE,127,0.0,1.0,77,0.00,,,0.00,0,Wunderground v.1.15,2013-09-11 04:48:00,
2013-09-10 21:53:00,65.0,57.6,29.92,ENE,75,0.0,0.0,77,0.00,,,0.00,0,Wunderground v.1.15,2013-09-11 04:53:00,
2013-09-10 21:59:00,64.5,57.1,29.92,ENE,59,0.0,0.0,77,0.00,,,0.00,0,Wunderground v.1.15,2013-09-11 04:59:00,
2013-09-10 22:05:00,64.1,56.7,29.93,ENE,60,0.0,0.0,77,0.00,,,0.00,0,Wunderground v.1.15,2013-09-11 05:05:00,
2013-09-10 22:11:00,63.4,56.4,29.93,SE,134,0.0,1.0,78,0.00,,,0.00,0,Wunderground v.1.15,2013-09-11 05:11:00,
2013-09-10 22:16:00,62.9,56.6,29.92,ESE,121,0.0,1.0,80,0.00,,,0.00,0,Wunderground v.1.15,2013-09-11 05:16:00,
2013-09-10 22:21:00,62.9,56.3,29.92,ESE,121,0.0,0.0,79,0.00,,,0.00,0,Wunderground v.1.15,2013-09-11 05:21:00,
2013-09-10 22:27:00,62.2,55.6,29.92,ESE,121,0.0,0.0,79,0.00,,,0.00,0,Wunderground v.1.15,2013-09-11 05:27:00,
2013-09-10 22:32:00,61.9,56.0,29.92,SE,137,0.0,1.0,81,0.00,,,0.00,0,Wunderground v.1.15,2013-09-11 05:32:00,
2013-09-10 22:37:00,62.0,56.1,29.93,SE,136,0.0,1.0,81,0.00,,,0.00,0,Wunderground v.1.15,2013-09-11 05:37:00,
2013-09-10 22:43:00,62.4,56.1,29.93,SE,136,0.0,0.0,80,0.00,,,0.00,0,Wunderground v.1.15,2013-09-11 05:43:00,
2013-09-10 22:48:00,62.3,55.7,29.93,SE,136,0.0,0.0,79,0.00,,,0.00,0,Wunderground v.1.15,2013-09-11 05:48:00,
2013-09-10 22:54:00,61.7,55.5,29.93,SE,136,0.0,1.0,80,0.00,,,0.00,0,Wunderground v.1.15,2013-09-11 05:54:00,
2013-09-10 22:59:00,61.2,55.3,29.93,ESE,123,1.0,2.0,81,0.00,,,0.00,0,Wunderground v.1.15,2013-09-11 05:59:00,
2013-09-10 23:05:00,61.0,55.1,29.93,ESE,121,1.0,2.0,81,0.00,,,0.00,0,Wunderground v.1.15,2013-09-11 06:05:00,
2013-09-10 23:10:00,61.1,55.2,29.93,ESE,121,0.0,0.0,81,0.00,,,0.00,0,Wunderground v.1.15,2013-09-11 06:10:00,
2013-09-10 23:15:00,60.9,55.0,29.93,ESE,121,0.0,0.0,81,0.00,,,0.00,0,Wunderground v.1.15,2013-09-11 06:15:00,
2013-09-10 23:21:00,60.7,54.8,29.93,ESE,123,0.0,2.0,81,0.00,,,0.00,0,Wunderground v.1.15,2013-09-11 06:21:00,
2013-09-10 23:26:00,60.3,54.8,29.93,SE,126,1.0,2.0,82,0.00,,,0.00,0,Wunderground v.1.15,2013-09-11 06:26:00,
2013-09-10 23:31:00,60.1,54.9,29.94,SE,130,1.0,2.0,83,0.00,,,0.00,0,Wunderground v.1.15,2013-09-11 06:31:00,
2013-09-10 23:36:00,59.9,54.7,29.93,SE,134,0.0,2.0,83,0.00,,,0.00,0,Wunderground v.1.15,2013-09-11 06:36:00,
2013-09-10 23:41:00,60.0,54.8,29.94,SE,127,1.0,1.0,83,0.00,,,0.00,0,Wunderground v.1.15,2013-09-11 06:41:00,
2013-09-10 23:47:00,60.1,54.9,29.94,SE,127,0.0,1.0,83,0.00,,,0.00,0,Wunderground v.1.15,2013-09-11 06:47:00,
2013-09-10 23:52:00,60.0,54.5,29.94,SE,127,0.0,2.0,82,0.00,,,0.00,0,Wunderground v.1.15,2013-09-11 06:52:00,
2013-09-10 23:58:00,59.8,54.6,29.94,SE,128,0.0,2.0,83,0.00,,,0.00,0,Wunderground v.1.15,2013-09-11 06:58:00,